createdAt,value
2022-11-29T00:02:12.055Z,7.14
2022-11-29T00:07:13.674Z,7.09
2022-11-29T00:12:15.308Z,7.10
2022-11-29T00:17:16.902Z,7.12
2022-11-29T00:22:18.484Z,7.10
2022-11-29T00:27:20.076Z,7.14
2022-11-29T00:32:21.681Z,7.13
2022-11-29T00:37:23.271Z,7.15
2022-11-29T00:42:24.844Z,7.17
2022-11-29T00:47:26.432Z,7.16
2022-11-29T00:52:27.955Z,7.15
2022-11-29T00:57:29.480Z,7.12
2022-11-29T01:02:31.070Z,7.12
2022-11-29T01:07:32.691Z,7.14
2022-11-29T01:12:37.957Z,7.11
2022-11-29T01:17:40.104Z,7.08
2022-11-29T01:22:42.349Z,7.10
2022-11-29T01:27:44.903Z,7.13
2022-11-29T01:32:46.502Z,7.13
2022-11-29T01:37:48.044Z,7.09
2022-11-29T01:42:49.584Z,7.09
2022-11-29T01:47:55.060Z,7.09
2022-11-29T01:52:56.684Z,7.08
2022-11-29T01:58:00.246Z,7.10
2022-11-29T02:03:14.386Z,7.10
2022-11-29T02:08:21.571Z,7.09
2022-11-29T02:13:58.164Z,7.06
2022-11-29T02:19:25.056Z,7.05
2022-11-29T02:24:38.684Z,7.10
2022-11-29T02:29:46.150Z,7.08
2022-11-29T02:35:24.132Z,7.10
2022-11-29T02:40:34.525Z,7.09
2022-11-29T02:46:00.747Z,7.05
2022-11-29T02:51:09.268Z,7.04
2022-11-29T02:56:36.424Z,7.05
2022-11-29T03:01:58.906Z,7.00
2022-11-29T03:07:25.023Z,7.00
2022-11-29T03:12:37.591Z,7.01
2022-11-29T03:17:51.292Z,7.03
2022-11-29T03:23:17.619Z,6.99
2022-11-29T03:28:25.161Z,7.03
2022-11-29T03:33:46.106Z,7.03
2022-11-29T03:38:47.941Z,6.96
2022-11-29T03:44:00.422Z,6.94
2022-11-29T03:49:18.076Z,6.97
2022-11-29T03:54:27.979Z,7.00
2022-11-29T03:59:35.775Z,7.00
2022-11-29T04:05:11.299Z,6.93
2022-11-29T04:10:22.419Z,6.85
2022-11-29T04:16:09.410Z,6.77
2022-11-29T04:21:30.435Z,6.75
2022-11-29T04:27:03.053Z,6.74
2022-11-29T04:32:44.928Z,6.75
2022-11-29T04:38:11.392Z,6.69
2022-11-29T04:43:37.262Z,6.67
2022-11-29T04:49:00.511Z,6.70
2022-11-29T04:54:15.214Z,6.64
2022-11-29T04:59:23.960Z,6.65
2022-11-29T05:04:53.336Z,6.63
2022-11-29T05:10:29.079Z,6.63
2022-11-29T05:15:45.356Z,6.65
2022-11-29T05:21:06.225Z,6.66
2022-11-29T05:26:18.386Z,6.66
2022-11-29T05:31:29.253Z,6.67
2022-11-29T05:37:02.172Z,6.67
2022-11-29T05:42:34.746Z,6.67
2022-11-29T05:47:45.932Z,6.70
2022-11-29T05:52:51.782Z,6.75
2022-11-29T05:58:14.034Z,6.74
2022-11-29T06:03:41.423Z,6.78
2022-11-29T06:08:54.804Z,6.81
2022-11-29T06:14:07.375Z,6.78
2022-11-29T06:19:29.703Z,6.81
2022-11-29T06:24:46.419Z,6.82
2022-11-29T06:30:02.108Z,6.84
2022-11-29T06:35:35.467Z,6.85
2022-11-29T06:40:37.333Z,6.85
2022-11-29T06:45:44.112Z,6.84
2022-11-29T06:51:03.597Z,6.86
2022-11-29T06:56:21.340Z,6.90
2022-11-29T07:01:47.783Z,6.92
2022-11-29T07:06:49.587Z,6.93
2022-11-29T07:11:51.320Z,6.95
2022-11-29T07:17:17.409Z,7.04
2022-11-29T07:22:40.989Z,7.05
2022-11-29T07:27:49.362Z,7.10
2022-11-29T07:33:00.444Z,7.15
2022-11-29T07:38:20.350Z,7.17
2022-11-29T07:43:34.140Z,7.17
2022-11-29T07:48:35.676Z,7.20
2022-11-29T07:53:44.493Z,7.27
2022-11-29T07:58:46.217Z,7.31
2022-11-29T08:03:48.886Z,7.38
2022-11-29T08:08:50.435Z,7.43
2022-11-29T08:13:57.598Z,7.47
2022-11-29T08:18:59.165Z,7.43
2022-11-29T08:24:00.751Z,7.46
2022-11-29T08:29:02.299Z,7.51
2022-11-29T08:34:06.859Z,7.57
2022-11-29T08:39:09.717Z,7.61
2022-11-29T08:44:11.374Z,7.59
2022-11-29T08:49:12.923Z,7.59
2022-11-29T08:54:14.461Z,7.65
2022-11-29T08:59:16.011Z,7.65
2022-11-29T09:04:17.659Z,7.62
2022-11-29T09:09:19.248Z,7.69
2022-11-29T09:14:22.834Z,7.71
2022-11-29T09:19:24.767Z,7.72
2022-11-29T09:24:26.350Z,7.45
2022-11-29T09:29:27.960Z,7.18
2022-11-29T09:34:29.529Z,6.95
2022-11-29T09:39:31.201Z,6.77
2022-11-29T09:44:59.291Z,6.70
2022-11-29T09:50:12.738Z,6.67
2022-11-29T09:55:49.591Z,6.63
2022-11-29T10:00:58.554Z,6.66
2022-11-29T10:06:07.828Z,6.66
2022-11-29T10:11:21.855Z,6.74
2022-11-29T10:16:52.870Z,6.89
2022-11-29T10:22:03.948Z,6.77
2022-11-29T10:27:19.295Z,6.87
2022-11-29T10:32:23.528Z,6.94
2022-11-29T10:37:25.283Z,7.00
2022-11-29T10:42:47.972Z,7.00
2022-11-29T10:47:51.028Z,7.04
2022-11-29T10:53:00.240Z,6.98
2022-11-29T10:58:13.444Z,7.04
2022-11-29T11:03:32.243Z,7.22
2022-11-29T11:08:35.019Z,7.26
2022-11-29T11:13:37.629Z,7.35
2022-11-29T11:18:39.325Z,7.47
2022-11-29T11:24:01.847Z,7.57
2022-11-29T11:29:03.990Z,7.68
2022-11-29T11:34:28.953Z,7.73
2022-11-29T11:39:32.283Z,7.72
2022-11-29T11:44:49.729Z,7.68
2022-11-29T11:50:04.759Z,7.70
2022-11-29T11:55:21.761Z,7.63
2022-11-29T12:01:03.418Z,7.69
2022-11-29T12:06:27.442Z,7.75
2022-11-29T12:11:37.463Z,7.87
2022-11-29T12:16:40.543Z,7.92
2022-11-29T12:21:48.001Z,8.02
2022-11-29T12:26:58.505Z,7.94
2022-11-29T12:32:00.840Z,7.95
2022-11-29T12:37:25.774Z,8.22
2022-11-29T12:43:10.982Z,8.50
2022-11-29T12:48:43.499Z,8.71
2022-11-29T12:53:51.629Z,8.81
2022-11-29T12:59:08.408Z,8.87
2022-11-29T13:04:44.630Z,8.93
2022-11-29T13:10:00.959Z,8.95
2022-11-29T13:15:14.062Z,8.86
2022-11-29T13:20:43.434Z,8.56
2022-11-29T13:25:50.825Z,8.51
2022-11-29T13:30:56.841Z,8.53
2022-11-29T13:36:06.488Z,8.48
2022-11-29T13:41:23.227Z,8.42
2022-11-29T13:46:43.516Z,8.29
2022-11-29T13:51:45.885Z,8.32
2022-11-29T13:56:47.488Z,8.34
2022-11-29T14:01:53.973Z,8.38
2022-11-29T14:07:22.289Z,8.28
2022-11-29T14:12:38.354Z,8.28
2022-11-29T14:17:42.960Z,8.26
2022-11-29T14:23:06.448Z,8.21
2022-11-29T14:28:13.966Z,8.17
2022-11-29T14:33:22.951Z,8.16
2022-11-29T14:38:31.295Z,8.06
2022-11-29T14:43:36.653Z,8.09
2022-11-29T14:48:38.536Z,8.08
2022-11-29T14:53:42.103Z,8.06
2022-11-29T14:58:44.272Z,8.04
2022-11-29T15:03:49.558Z,8.05
2022-11-29T15:08:57.442Z,8.09
2022-11-29T15:14:04.148Z,8.14
2022-11-29T15:19:27.224Z,8.13
2022-11-29T15:24:29.048Z,8.13
2022-11-29T15:29:31.971Z,8.07
2022-11-29T15:34:50.502Z,7.99
2022-11-29T15:40:02.633Z,8.02
2022-11-29T15:45:35.717Z,8.00
2022-11-29T15:50:39.402Z,7.92
2022-11-29T15:55:42.544Z,7.95
2022-11-29T16:00:49.593Z,7.97
2022-11-29T16:06:34.059Z,7.92
2022-11-29T16:11:37.301Z,7.95
2022-11-29T16:16:40.575Z,7.88
2022-11-29T16:21:43.642Z,7.79
2022-11-29T16:26:46.955Z,7.67
2022-11-29T16:31:48.623Z,7.60
2022-11-29T16:37:06.572Z,7.52
2022-11-29T16:42:08.390Z,7.36
2022-11-29T16:47:21.624Z,7.28
2022-11-29T16:52:28.482Z,7.27
2022-11-29T16:57:31.217Z,7.27
2022-11-29T17:02:33.042Z,7.29
2022-11-29T17:07:39.337Z,7.29
2022-11-29T17:12:46.371Z,7.29
2022-11-29T17:17:49.528Z,7.29
2022-11-29T17:22:51.099Z,7.27
2022-11-29T17:27:52.654Z,7.28
2022-11-29T17:32:54.171Z,7.27
2022-11-29T17:37:55.702Z,7.29
2022-11-29T17:42:57.385Z,7.35
2022-11-29T17:47:59.481Z,7.40
2022-11-29T17:53:01.015Z,7.40
2022-11-29T17:58:02.554Z,7.40
2022-11-29T18:03:04.147Z,7.35
2022-11-29T18:08:05.914Z,7.32
2022-11-29T18:13:07.671Z,7.29
2022-11-29T18:18:10.559Z,7.31
2022-11-29T18:23:12.089Z,7.32
2022-11-29T18:28:13.932Z,7.34
2022-11-29T18:33:15.489Z,7.31
2022-11-29T18:38:17.113Z,7.31
2022-11-29T18:43:18.701Z,7.28
2022-11-29T18:48:20.302Z,7.31
2022-11-29T18:53:21.875Z,7.32
2022-11-29T18:58:23.443Z,7.29
2022-11-29T19:03:24.984Z,7.18
2022-11-29T19:08:26.563Z,7.09
2022-11-29T19:13:28.106Z,6.98
2022-11-29T19:18:32.284Z,6.87
2022-11-29T19:23:34.208Z,6.83
2022-11-29T19:28:41.008Z,6.80
2022-11-29T19:33:44.868Z,6.77
2022-11-29T19:38:51.754Z,6.75
2022-11-29T19:44:00.850Z,6.72
2022-11-29T19:49:06.040Z,6.69
2022-11-29T19:54:08.706Z,6.69
2022-11-29T19:59:10.585Z,6.66
2022-11-29T20:04:13.867Z,6.66
2022-11-29T20:09:16.178Z,6.65
2022-11-29T20:14:17.815Z,6.67
2022-11-29T20:19:19.455Z,6.68
2022-11-29T20:24:21.155Z,6.71
2022-11-29T20:29:27.064Z,6.73
2022-11-29T20:34:28.740Z,6.74
2022-11-29T20:40:00.702Z,6.75
2022-11-29T20:45:06.436Z,6.75
2022-11-29T20:50:08.259Z,6.78
2022-11-29T20:55:12.469Z,6.79
2022-11-29T21:00:15.630Z,6.79
2022-11-29T21:05:17.328Z,6.81
2022-11-29T21:10:19.814Z,6.81
2022-11-29T21:15:22.379Z,6.84
2022-11-29T21:20:26.738Z,6.86
2022-11-29T21:25:49.851Z,6.86
2022-11-29T21:30:51.671Z,6.85
2022-11-29T21:35:55.660Z,6.85
2022-11-29T21:40:57.251Z,6.86
2022-11-29T21:45:58.889Z,6.86
2022-11-29T21:51:01.385Z,6.85
2022-11-29T21:56:05.868Z,6.83
2022-11-29T22:01:18.271Z,6.86
2022-11-29T22:06:24.326Z,6.90
2022-11-29T22:11:32.161Z,6.91
2022-11-29T22:16:33.726Z,6.92
2022-11-29T22:21:35.347Z,6.85
2022-11-29T22:26:37.754Z,6.78
2022-11-29T22:31:40.432Z,6.74
2022-11-29T22:36:42.799Z,6.73
2022-11-29T22:41:46.996Z,6.74
2022-11-29T22:46:51.200Z,6.73
2022-11-29T22:51:53.403Z,6.71
2022-11-29T22:56:54.940Z,6.69
2022-11-29T23:01:56.546Z,6.66
2022-11-29T23:06:58.201Z,6.64
2022-11-29T23:11:59.783Z,6.49
2022-11-29T23:17:01.327Z,6.40
2022-11-29T23:22:02.880Z,6.30
2022-11-29T23:27:04.931Z,6.24
2022-11-29T23:32:06.526Z,6.20
2022-11-29T23:37:08.100Z,6.15
2022-11-29T23:42:09.692Z,6.09
2022-11-29T23:47:11.252Z,6.02
2022-11-29T23:52:12.818Z,5.98
2022-11-29T23:57:14.361Z,6.00
